sensor_id;sensor_type;location;lat;lon;timestamp;P1;durP1;ratioP1;P2;durP2;ratioP2
20090;SDS011;10205;49.678;6.560;2022-12-07T00:01:06;5.77;;;4.57;;
20090;SDS011;10205;49.678;6.560;2022-12-07T00:03:37;6.07;;;4.77;;
20090;SDS011;10205;49.678;6.560;2022-12-07T00:06:06;5.43;;;4.43;;
20090;SDS011;10205;49.678;6.560;2022-12-07T00:08:36;5.53;;;4.50;;
20090;SDS011;10205;49.678;6.560;2022-12-07T00:11:05;5.30;;;4.23;;
20090;SDS011;10205;49.678;6.560;2022-12-07T00:13:34;5.57;;;4.63;;
20090;SDS011;10205;49.678;6.560;2022-12-07T00:16:03;5.03;;;4.53;;
20090;SDS011;10205;49.678;6.560;2022-12-07T00:18:35;5.73;;;5.10;;
20090;SDS011;10205;49.678;6.560;2022-12-07T00:21:04;4.93;;;4.43;;
20090;SDS011;10205;49.678;6.560;2022-12-07T00:23:35;5.40;;;4.90;;
20090;SDS011;10205;49.678;6.560;2022-12-07T00:26:03;4.93;;;4.43;;
20090;SDS011;10205;49.678;6.560;2022-12-07T00:28:31;6.23;;;5.00;;
20090;SDS011;10205;49.678;6.560;2022-12-07T00:31:00;5.20;;;4.67;;
20090;SDS011;10205;49.678;6.560;2022-12-07T00:33:32;5.67;;;4.80;;
20090;SDS011;10205;49.678;6.560;2022-12-07T00:36:00;5.90;;;4.87;;
20090;SDS011;10205;49.678;6.560;2022-12-07T00:38:30;6.03;;;5.33;;
20090;SDS011;10205;49.678;6.560;2022-12-07T00:41:00;5.50;;;4.60;;
20090;SDS011;10205;49.678;6.560;2022-12-07T00:43:29;6.90;;;4.90;;
20090;SDS011;10205;49.678;6.560;2022-12-07T00:45:58;5.43;;;4.80;;
20090;SDS011;10205;49.678;6.560;2022-12-07T00:48:25;6.03;;;4.93;;
20090;SDS011;10205;49.678;6.560;2022-12-07T00:50:54;6.07;;;5.00;;
20090;SDS011;10205;49.678;6.560;2022-12-07T00:53:22;5.83;;;4.80;;
20090;SDS011;10205;49.678;6.560;2022-12-07T00:55:53;5.63;;;4.70;;
20090;SDS011;10205;49.678;6.560;2022-12-07T00:58:20;6.10;;;4.80;;
20090;SDS011;10205;49.678;6.560;2022-12-07T01:00:48;8.03;;;4.80;;
20090;SDS011;10205;49.678;6.560;2022-12-07T01:03:16;5.50;;;4.90;;
20090;SDS011;10205;49.678;6.560;2022-12-07T01:05:50;5.23;;;4.43;;
20090;SDS011;10205;49.678;6.560;2022-12-07T01:08:20;7.27;;;5.40;;
20090;SDS011;10205;49.678;6.560;2022-12-07T01:10:49;5.97;;;4.97;;
20090;SDS011;10205;49.678;6.560;2022-12-07T01:13:24;7.23;;;5.30;;
20090;SDS011;10205;49.678;6.560;2022-12-07T01:15:55;6.00;;;5.40;;
20090;SDS011;10205;49.678;6.560;2022-12-07T01:18:25;7.77;;;5.27;;
20090;SDS011;10205;49.678;6.560;2022-12-07T01:21:00;5.90;;;4.20;;
20090;SDS011;10205;49.678;6.560;2022-12-07T01:23:32;7.10;;;5.20;;
20090;SDS011;10205;49.678;6.560;2022-12-07T01:26:03;7.13;;;5.43;;
20090;SDS011;10205;49.678;6.560;2022-12-07T01:28:32;5.83;;;4.77;;
20090;SDS011;10205;49.678;6.560;2022-12-07T01:31:01;7.67;;;5.87;;
20090;SDS011;10205;49.678;6.560;2022-12-07T01:33:31;7.77;;;5.47;;
20090;SDS011;10205;49.678;6.560;2022-12-07T01:36:02;8.27;;;4.70;;
20090;SDS011;10205;49.678;6.560;2022-12-07T01:38:30;7.57;;;5.60;;
20090;SDS011;10205;49.678;6.560;2022-12-07T01:41:00;7.50;;;5.00;;
20090;SDS011;10205;49.678;6.560;2022-12-07T01:43:29;6.67;;;5.07;;
20090;SDS011;10205;49.678;6.560;2022-12-07T01:45:58;7.17;;;5.13;;
20090;SDS011;10205;49.678;6.560;2022-12-07T01:48:31;5.30;;;4.60;;
20090;SDS011;10205;49.678;6.560;2022-12-07T01:51:04;7.67;;;4.73;;
20090;SDS011;10205;49.678;6.560;2022-12-07T01:53:38;5.60;;;4.57;;
20090;SDS011;10205;49.678;6.560;2022-12-07T01:56:12;6.67;;;5.53;;
20090;SDS011;10205;49.678;6.560;2022-12-07T01:58:50;6.03;;;4.73;;
20090;SDS011;10205;49.678;6.560;2022-12-07T02:01:19;6.37;;;5.13;;
20090;SDS011;10205;49.678;6.560;2022-12-07T02:03:47;5.27;;;4.63;;
20090;SDS011;10205;49.678;6.560;2022-12-07T02:06:16;6.53;;;4.83;;
20090;SDS011;10205;49.678;6.560;2022-12-07T02:08:50;6.60;;;5.57;;
20090;SDS011;10205;49.678;6.560;2022-12-07T02:11:18;5.87;;;4.80;;
20090;SDS011;10205;49.678;6.560;2022-12-07T02:13:46;6.17;;;4.87;;
20090;SDS011;10205;49.678;6.560;2022-12-07T02:16:25;6.17;;;5.13;;
20090;SDS011;10205;49.678;6.560;2022-12-07T02:19:06;5.60;;;4.30;;
20090;SDS011;10205;49.678;6.560;2022-12-07T02:22:32;5.63;;;4.37;;
20090;SDS011;10205;49.678;6.560;2022-12-07T02:25:32;6.33;;;5.00;;
20090;SDS011;10205;49.678;6.560;2022-12-07T02:28:22;6.10;;;4.80;;
20090;SDS011;10205;49.678;6.560;2022-12-07T02:31:01;7.07;;;5.23;;
20090;SDS011;10205;49.678;6.560;2022-12-07T02:33:35;7.03;;;5.37;;
20090;SDS011;10205;49.678;6.560;2022-12-07T02:36:10;7.50;;;5.30;;
20090;SDS011;10205;49.678;6.560;2022-12-07T02:38:47;7.87;;;5.43;;
20090;SDS011;10205;49.678;6.560;2022-12-07T02:41:22;5.87;;;4.83;;
20090;SDS011;10205;49.678;6.560;2022-12-07T02:43:56;6.00;;;5.10;;
20090;SDS011;10205;49.678;6.560;2022-12-07T02:46:30;6.03;;;5.17;;
20090;SDS011;10205;49.678;6.560;2022-12-07T02:49:02;5.40;;;4.90;;
20090;SDS011;10205;49.678;6.560;2022-12-07T02:51:31;8.43;;;5.17;;
20090;SDS011;10205;49.678;6.560;2022-12-07T02:54:00;6.33;;;4.93;;
20090;SDS011;10205;49.678;6.560;2022-12-07T02:56:35;6.63;;;5.67;;
20090;SDS011;10205;49.678;6.560;2022-12-07T02:59:15;6.77;;;5.17;;
20090;SDS011;10205;49.678;6.560;2022-12-07T03:01:57;6.60;;;5.10;;
20090;SDS011;10205;49.678;6.560;2022-12-07T03:04:43;5.43;;;4.70;;
20090;SDS011;10205;49.678;6.560;2022-12-07T03:07:21;7.30;;;5.90;;
20090;SDS011;10205;49.678;6.560;2022-12-07T03:10:07;6.67;;;5.37;;
20090;SDS011;10205;49.678;6.560;2022-12-07T03:12:44;5.33;;;4.80;;
20090;SDS011;10205;49.678;6.560;2022-12-07T03:15:23;6.13;;;4.90;;
20090;SDS011;10205;49.678;6.560;2022-12-07T03:17:59;5.53;;;4.97;;
20090;SDS011;10205;49.678;6.560;2022-12-07T03:20:30;8.40;;;5.90;;
20090;SDS011;10205;49.678;6.560;2022-12-07T03:23:05;11.53;;;6.57;;
20090;SDS011;10205;49.678;6.560;2022-12-07T03:25:37;7.30;;;5.20;;
20090;SDS011;10205;49.678;6.560;2022-12-07T03:28:08;7.97;;;5.53;;
20090;SDS011;10205;49.678;6.560;2022-12-07T03:30:42;7.33;;;5.97;;
20090;SDS011;10205;49.678;6.560;2022-12-07T03:33:15;6.23;;;5.53;;
20090;SDS011;10205;49.678;6.560;2022-12-07T03:35:51;6.73;;;5.27;;
20090;SDS011;10205;49.678;6.560;2022-12-07T03:38:33;6.40;;;5.23;;
20090;SDS011;10205;49.678;6.560;2022-12-07T03:41:08;6.73;;;5.17;;
20090;SDS011;10205;49.678;6.560;2022-12-07T03:43:40;8.73;;;6.43;;
20090;SDS011;10205;49.678;6.560;2022-12-07T03:46:12;8.53;;;6.33;;
20090;SDS011;10205;49.678;6.560;2022-12-07T03:48:54;7.63;;;6.00;;
20090;SDS011;10205;49.678;6.560;2022-12-07T03:51:28;9.10;;;6.77;;
20090;SDS011;10205;49.678;6.560;2022-12-07T03:54:07;7.87;;;6.67;;
20090;SDS011;10205;49.678;6.560;2022-12-07T03:56:40;9.67;;;6.80;;
20090;SDS011;10205;49.678;6.560;2022-12-07T03:59:11;9.77;;;7.33;;
20090;SDS011;10205;49.678;6.560;2022-12-07T04:01:42;8.73;;;6.37;;
20090;SDS011;10205;49.678;6.560;2022-12-07T04:04:12;11.17;;;6.97;;
20090;SDS011;10205;49.678;6.560;2022-12-07T04:06:39;9.30;;;6.67;;
20090;SDS011;10205;49.678;6.560;2022-12-07T04:09:06;9.27;;;6.40;;
20090;SDS011;10205;49.678;6.560;2022-12-07T04:11:33;9.10;;;7.20;;
20090;SDS011;10205;49.678;6.560;2022-12-07T04:14:01;8.27;;;6.13;;
20090;SDS011;10205;49.678;6.560;2022-12-07T04:16:46;8.33;;;6.30;;
20090;SDS011;10205;49.678;6.560;2022-12-07T04:19:17;9.80;;;6.37;;
20090;SDS011;10205;49.678;6.560;2022-12-07T04:21:46;7.20;;;5.60;;
20090;SDS011;10205;49.678;6.560;2022-12-07T04:24:14;7.37;;;5.80;;
20090;SDS011;10205;49.678;6.560;2022-12-07T04:26:43;10.67;;;7.00;;
20090;SDS011;10205;49.678;6.560;2022-12-07T04:29:12;7.50;;;5.83;;
20090;SDS011;10205;49.678;6.560;2022-12-07T04:31:41;8.40;;;6.40;;
20090;SDS011;10205;49.678;6.560;2022-12-07T04:34:09;8.40;;;6.77;;
20090;SDS011;10205;49.678;6.560;2022-12-07T04:36:38;8.93;;;7.20;;
20090;SDS011;10205;49.678;6.560;2022-12-07T04:39:07;9.97;;;7.30;;
20090;SDS011;10205;49.678;6.560;2022-12-07T04:41:43;8.10;;;6.90;;
20090;SDS011;10205;49.678;6.560;2022-12-07T04:44:11;8.87;;;7.13;;
20090;SDS011;10205;49.678;6.560;2022-12-07T04:46:40;12.67;;;6.90;;
20090;SDS011;10205;49.678;6.560;2022-12-07T04:49:11;7.90;;;6.33;;
20090;SDS011;10205;49.678;6.560;2022-12-07T04:51:42;9.23;;;6.70;;
20090;SDS011;10205;49.678;6.560;2022-12-07T04:54:10;11.70;;;7.33;;
20090;SDS011;10205;49.678;6.560;2022-12-07T04:56:39;8.20;;;6.70;;
20090;SDS011;10205;49.678;6.560;2022-12-07T04:59:06;7.07;;;5.90;;
20090;SDS011;10205;49.678;6.560;2022-12-07T05:01:34;10.63;;;7.60;;
20090;SDS011;10205;49.678;6.560;2022-12-07T05:04:01;9.27;;;6.90;;
20090;SDS011;10205;49.678;6.560;2022-12-07T05:06:29;13.20;;;7.67;;
20090;SDS011;10205;49.678;6.560;2022-12-07T05:08:58;11.07;;;7.30;;
20090;SDS011;10205;49.678;6.560;2022-12-07T05:11:25;9.30;;;7.47;;
20090;SDS011;10205;49.678;6.560;2022-12-07T05:14:05;11.30;;;7.80;;
20090;SDS011;10205;49.678;6.560;2022-12-07T05:16:37;13.77;;;8.27;;
20090;SDS011;10205;49.678;6.560;2022-12-07T05:19:06;10.70;;;7.63;;
20090;SDS011;10205;49.678;6.560;2022-12-07T05:21:34;10.37;;;7.60;;
20090;SDS011;10205;49.678;6.560;2022-12-07T05:24:03;8.87;;;7.07;;
20090;SDS011;10205;49.678;6.560;2022-12-07T05:26:31;8.70;;;6.97;;
20090;SDS011;10205;49.678;6.560;2022-12-07T05:28:59;10.30;;;7.80;;
20090;SDS011;10205;49.678;6.560;2022-12-07T05:31:26;11.17;;;7.67;;
20090;SDS011;10205;49.678;6.560;2022-12-07T05:33:54;10.90;;;7.43;;
20090;SDS011;10205;49.678;6.560;2022-12-07T05:36:22;9.50;;;7.13;;
20090;SDS011;10205;49.678;6.560;2022-12-07T05:38:49;10.80;;;8.47;;
20090;SDS011;10205;49.678;6.560;2022-12-07T05:41:19;11.60;;;6.70;;
20090;SDS011;10205;49.678;6.560;2022-12-07T05:44:03;11.13;;;7.90;;
20090;SDS011;10205;49.678;6.560;2022-12-07T05:46:32;10.57;;;7.30;;
20090;SDS011;10205;49.678;6.560;2022-12-07T05:49:00;11.33;;;7.87;;
20090;SDS011;10205;49.678;6.560;2022-12-07T05:51:27;7.97;;;6.77;;
20090;SDS011;10205;49.678;6.560;2022-12-07T05:53:54;8.53;;;6.67;;
20090;SDS011;10205;49.678;6.560;2022-12-07T05:56:23;13.37;;;8.33;;
20090;SDS011;10205;49.678;6.560;2022-12-07T05:58:51;11.50;;;7.37;;
20090;SDS011;10205;49.678;6.560;2022-12-07T06:01:36;12.93;;;8.70;;
20090;SDS011;10205;49.678;6.560;2022-12-07T06:04:03;9.60;;;7.37;;
20090;SDS011;10205;49.678;6.560;2022-12-07T06:06:30;9.53;;;7.27;;
20090;SDS011;10205;49.678;6.560;2022-12-07T06:08:58;10.93;;;7.87;;
20090;SDS011;10205;49.678;6.560;2022-12-07T06:11:27;15.70;;;8.33;;
20090;SDS011;10205;49.678;6.560;2022-12-07T06:14:11;9.87;;;7.13;;
20090;SDS011;10205;49.678;6.560;2022-12-07T06:16:39;10.30;;;7.53;;
20090;SDS011;10205;49.678;6.560;2022-12-07T06:19:07;9.47;;;7.63;;
20090;SDS011;10205;49.678;6.560;2022-12-07T06:21:34;10.17;;;7.83;;
20090;SDS011;10205;49.678;6.560;2022-12-07T06:24:02;10.50;;;7.70;;
20090;SDS011;10205;49.678;6.560;2022-12-07T06:26:35;13.17;;;8.07;;
20090;SDS011;10205;49.678;6.560;2022-12-07T06:29:04;12.77;;;8.23;;
20090;SDS011;10205;49.678;6.560;2022-12-07T06:31:32;10.60;;;7.10;;
20090;SDS011;10205;49.678;6.560;2022-12-07T06:34:00;11.57;;;7.80;;
20090;SDS011;10205;49.678;6.560;2022-12-07T06:36:31;9.83;;;7.30;;
20090;SDS011;10205;49.678;6.560;2022-12-07T06:38:59;10.87;;;8.13;;
20090;SDS011;10205;49.678;6.560;2022-12-07T06:41:27;11.33;;;8.60;;
20090;SDS011;10205;49.678;6.560;2022-12-07T06:43:56;10.43;;;7.73;;
20090;SDS011;10205;49.678;6.560;2022-12-07T06:46:23;10.70;;;8.03;;
20090;SDS011;10205;49.678;6.560;2022-12-07T06:48:50;10.37;;;7.87;;
20090;SDS011;10205;49.678;6.560;2022-12-07T06:51:18;11.17;;;7.40;;
20090;SDS011;10205;49.678;6.560;2022-12-07T06:53:45;12.33;;;7.60;;
20090;SDS011;10205;49.678;6.560;2022-12-07T06:56:13;11.10;;;7.97;;
20090;SDS011;10205;49.678;6.560;2022-12-07T06:58:40;12.30;;;8.63;;
20090;SDS011;10205;49.678;6.560;2022-12-07T07:01:10;10.93;;;7.83;;
20090;SDS011;10205;49.678;6.560;2022-12-07T07:03:38;11.07;;;7.73;;
20090;SDS011;10205;49.678;6.560;2022-12-07T07:06:06;9.53;;;7.10;;
20090;SDS011;10205;49.678;6.560;2022-12-07T07:08:34;10.63;;;8.17;;
20090;SDS011;10205;49.678;6.560;2022-12-07T07:11:02;12.10;;;8.80;;
20090;SDS011;10205;49.678;6.560;2022-12-07T07:13:30;12.00;;;8.57;;
20090;SDS011;10205;49.678;6.560;2022-12-07T07:15:58;11.27;;;8.20;;
20090;SDS011;10205;49.678;6.560;2022-12-07T07:18:27;11.57;;;8.13;;
20090;SDS011;10205;49.678;6.560;2022-12-07T07:20:55;14.17;;;9.00;;
20090;SDS011;10205;49.678;6.560;2022-12-07T07:23:23;15.03;;;10.03;;
20090;SDS011;10205;49.678;6.560;2022-12-07T07:25:50;12.13;;;9.10;;
20090;SDS011;10205;49.678;6.560;2022-12-07T07:28:17;11.53;;;8.63;;
20090;SDS011;10205;49.678;6.560;2022-12-07T07:30:45;11.87;;;8.67;;
20090;SDS011;10205;49.678;6.560;2022-12-07T07:33:12;14.30;;;8.97;;
20090;SDS011;10205;49.678;6.560;2022-12-07T07:35:41;12.37;;;9.13;;
20090;SDS011;10205;49.678;6.560;2022-12-07T07:38:09;12.73;;;8.43;;
20090;SDS011;10205;49.678;6.560;2022-12-07T07:40:36;12.23;;;8.57;;
20090;SDS011;10205;49.678;6.560;2022-12-07T07:43:03;13.13;;;9.77;;
20090;SDS011;10205;49.678;6.560;2022-12-07T07:45:32;11.20;;;8.73;;
20090;SDS011;10205;49.678;6.560;2022-12-07T07:47:59;12.27;;;8.83;;
20090;SDS011;10205;49.678;6.560;2022-12-07T07:50:27;14.77;;;9.53;;
20090;SDS011;10205;49.678;6.560;2022-12-07T07:52:55;12.97;;;9.27;;
20090;SDS011;10205;49.678;6.560;2022-12-07T07:55:23;12.63;;;8.47;;
20090;SDS011;10205;49.678;6.560;2022-12-07T07:57:51;13.03;;;8.57;;
20090;SDS011;10205;49.678;6.560;2022-12-07T08:00:18;12.50;;;8.73;;
20090;SDS011;10205;49.678;6.560;2022-12-07T08:02:46;14.33;;;9.40;;
20090;SDS011;10205;49.678;6.560;2022-12-07T08:05:13;11.47;;;8.37;;
20090;SDS011;10205;49.678;6.560;2022-12-07T08:07:41;14.33;;;9.23;;
20090;SDS011;10205;49.678;6.560;2022-12-07T08:10:11;13.90;;;9.10;;
20090;SDS011;10205;49.678;6.560;2022-12-07T08:12:40;16.13;;;9.33;;
20090;SDS011;10205;49.678;6.560;2022-12-07T08:15:23;12.97;;;9.10;;
20090;SDS011;10205;49.678;6.560;2022-12-07T08:17:52;13.33;;;9.57;;
20090;SDS011;10205;49.678;6.560;2022-12-07T08:20:20;13.53;;;9.47;;
20090;SDS011;10205;49.678;6.560;2022-12-07T08:22:47;15.67;;;9.97;;
20090;SDS011;10205;49.678;6.560;2022-12-07T08:25:16;15.83;;;9.60;;
20090;SDS011;10205;49.678;6.560;2022-12-07T08:27:43;11.63;;;8.37;;
20090;SDS011;10205;49.678;6.560;2022-12-07T08:30:10;13.83;;;8.97;;
20090;SDS011;10205;49.678;6.560;2022-12-07T08:32:38;12.13;;;8.80;;
20090;SDS011;10205;49.678;6.560;2022-12-07T08:35:06;17.47;;;8.87;;
20090;SDS011;10205;49.678;6.560;2022-12-07T08:37:34;15.33;;;9.77;;
20090;SDS011;10205;49.678;6.560;2022-12-07T08:40:02;13.03;;;9.57;;
20090;SDS011;10205;49.678;6.560;2022-12-07T08:42:33;13.03;;;9.07;;
20090;SDS011;10205;49.678;6.560;2022-12-07T08:45:05;11.70;;;9.03;;
20090;SDS011;10205;49.678;6.560;2022-12-07T08:47:34;15.50;;;9.53;;
20090;SDS011;10205;49.678;6.560;2022-12-07T08:50:05;13.77;;;9.30;;
20090;SDS011;10205;49.678;6.560;2022-12-07T08:52:36;15.33;;;10.03;;
20090;SDS011;10205;49.678;6.560;2022-12-07T08:55:06;13.47;;;9.87;;
20090;SDS011;10205;49.678;6.560;2022-12-07T08:57:37;15.77;;;10.87;;
20090;SDS011;10205;49.678;6.560;2022-12-07T09:00:06;14.20;;;10.00;;
20090;SDS011;10205;49.678;6.560;2022-12-07T09:02:34;15.30;;;10.27;;
20090;SDS011;10205;49.678;6.560;2022-12-07T09:05:02;12.63;;;9.03;;
20090;SDS011;10205;49.678;6.560;2022-12-07T09:07:30;14.70;;;9.60;;
20090;SDS011;10205;49.678;6.560;2022-12-07T09:09:59;13.60;;;9.67;;
20090;SDS011;10205;49.678;6.560;2022-12-07T09:12:27;13.30;;;10.00;;
20090;SDS011;10205;49.678;6.560;2022-12-07T09:14:55;13.97;;;10.03;;
20090;SDS011;10205;49.678;6.560;2022-12-07T09:17:22;15.33;;;9.50;;
20090;SDS011;10205;49.678;6.560;2022-12-07T09:19:49;16.63;;;10.37;;
20090;SDS011;10205;49.678;6.560;2022-12-07T09:22:16;15.47;;;10.10;;
20090;SDS011;10205;49.678;6.560;2022-12-07T09:24:44;13.33;;;9.53;;
20090;SDS011;10205;49.678;6.560;2022-12-07T09:27:11;13.70;;;9.40;;
20090;SDS011;10205;49.678;6.560;2022-12-07T09:29:39;15.20;;;10.23;;
20090;SDS011;10205;49.678;6.560;2022-12-07T09:32:07;12.73;;;9.53;;
20090;SDS011;10205;49.678;6.560;2022-12-07T09:34:34;12.87;;;9.20;;
20090;SDS011;10205;49.678;6.560;2022-12-07T09:37:01;13.10;;;9.40;;
20090;SDS011;10205;49.678;6.560;2022-12-07T09:39:31;13.40;;;8.73;;
20090;SDS011;10205;49.678;6.560;2022-12-07T09:41:59;14.23;;;8.97;;
20090;SDS011;10205;49.678;6.560;2022-12-07T09:44:30;13.47;;;8.60;;
20090;SDS011;10205;49.678;6.560;2022-12-07T09:46:58;11.30;;;8.33;;
20090;SDS011;10205;49.678;6.560;2022-12-07T09:49:27;12.07;;;8.33;;
20090;SDS011;10205;49.678;6.560;2022-12-07T09:52:01;12.67;;;8.83;;
20090;SDS011;10205;49.678;6.560;2022-12-07T09:54:45;12.40;;;8.97;;
20090;SDS011;10205;49.678;6.560;2022-12-07T09:57:16;12.53;;;8.53;;
20090;SDS011;10205;49.678;6.560;2022-12-07T09:59:53;12.30;;;8.70;;
20090;SDS011;10205;49.678;6.560;2022-12-07T10:02:25;13.40;;;8.47;;
20090;SDS011;10205;49.678;6.560;2022-12-07T10:05:05;11.37;;;8.43;;
20090;SDS011;10205;49.678;6.560;2022-12-07T10:07:36;11.57;;;8.40;;
20090;SDS011;10205;49.678;6.560;2022-12-07T10:10:04;10.43;;;7.97;;
20090;SDS011;10205;49.678;6.560;2022-12-07T10:12:45;11.10;;;8.27;;
20090;SDS011;10205;49.678;6.560;2022-12-07T10:15:22;10.23;;;7.83;;
20090;SDS011;10205;49.678;6.560;2022-12-07T10:17:50;11.37;;;7.53;;
20090;SDS011;10205;49.678;6.560;2022-12-07T10:20:24;11.07;;;8.40;;
20090;SDS011;10205;49.678;6.560;2022-12-07T10:22:57;10.43;;;7.53;;
20090;SDS011;10205;49.678;6.560;2022-12-07T10:25:29;10.67;;;7.43;;
20090;SDS011;10205;49.678;6.560;2022-12-07T10:28:02;11.00;;;8.27;;
20090;SDS011;10205;49.678;6.560;2022-12-07T10:30:49;12.03;;;7.00;;
20090;SDS011;10205;49.678;6.560;2022-12-07T10:33:35;9.10;;;6.70;;
20090;SDS011;10205;49.678;6.560;2022-12-07T10:36:20;8.30;;;6.27;;
20090;SDS011;10205;49.678;6.560;2022-12-07T10:38:51;8.10;;;6.13;;
20090;SDS011;10205;49.678;6.560;2022-12-07T10:41:26;9.67;;;6.47;;
20090;SDS011;10205;49.678;6.560;2022-12-07T10:43:54;7.40;;;5.40;;
20090;SDS011;10205;49.678;6.560;2022-12-07T10:46:37;8.07;;;5.43;;
20090;SDS011;10205;49.678;6.560;2022-12-07T10:49:36;7.77;;;5.93;;
20090;SDS011;10205;49.678;6.560;2022-12-07T10:52:45;8.33;;;5.83;;
20090;SDS011;10205;49.678;6.560;2022-12-07T10:55:41;8.73;;;5.23;;
20090;SDS011;10205;49.678;6.560;2022-12-07T10:58:37;8.23;;;5.13;;
20090;SDS011;10205;49.678;6.560;2022-12-07T11:01:21;6.90;;;4.67;;
20090;SDS011;10205;49.678;6.560;2022-12-07T11:04:01;9.50;;;5.37;;
20090;SDS011;10205;49.678;6.560;2022-12-07T11:06:56;6.70;;;5.00;;
20090;SDS011;10205;49.678;6.560;2022-12-07T11:12:36;7.17;;;4.57;;
20090;SDS011;10205;49.678;6.560;2022-12-07T11:15:28;6.97;;;4.77;;
20090;SDS011;10205;49.678;6.560;2022-12-07T11:18:14;7.33;;;5.40;;
20090;SDS011;10205;49.678;6.560;2022-12-07T11:20:51;6.43;;;5.13;;
20090;SDS011;10205;49.678;6.560;2022-12-07T11:23:29;6.80;;;4.97;;
20090;SDS011;10205;49.678;6.560;2022-12-07T11:26:13;8.13;;;5.07;;
20090;SDS011;10205;49.678;6.560;2022-12-07T11:29:03;8.33;;;4.90;;
20090;SDS011;10205;49.678;6.560;2022-12-07T11:31:57;7.77;;;4.90;;
20090;SDS011;10205;49.678;6.560;2022-12-07T11:34:39;5.80;;;4.80;;
20090;SDS011;10205;49.678;6.560;2022-12-07T11:37:23;5.23;;;4.40;;
20090;SDS011;10205;49.678;6.560;2022-12-07T11:39:59;6.27;;;4.87;;
20090;SDS011;10205;49.678;6.560;2022-12-07T11:42:33;6.03;;;4.77;;
20090;SDS011;10205;49.678;6.560;2022-12-07T11:45:12;7.90;;;4.30;;
20090;SDS011;10205;49.678;6.560;2022-12-07T11:47:45;7.30;;;4.40;;
20090;SDS011;10205;49.678;6.560;2022-12-07T11:50:24;7.00;;;4.80;;
20090;SDS011;10205;49.678;6.560;2022-12-07T11:53:00;5.63;;;4.50;;
20090;SDS011;10205;49.678;6.560;2022-12-07T11:55:39;5.80;;;4.37;;
20090;SDS011;10205;49.678;6.560;2022-12-07T11:58:20;7.60;;;4.77;;
20090;SDS011;10205;49.678;6.560;2022-12-07T12:01:09;10.17;;;4.20;;
20090;SDS011;10205;49.678;6.560;2022-12-07T12:03:49;6.03;;;4.20;;
20090;SDS011;10205;49.678;6.560;2022-12-07T12:06:20;4.10;;;3.70;;
20090;SDS011;10205;49.678;6.560;2022-12-07T12:08:48;3.90;;;3.30;;
20090;SDS011;10205;49.678;6.560;2022-12-07T12:11:30;6.13;;;4.00;;
20090;SDS011;10205;49.678;6.560;2022-12-07T12:17:26;6.23;;;3.60;;
20090;SDS011;10205;49.678;6.560;2022-12-07T12:20:19;5.40;;;3.73;;
20090;SDS011;10205;49.678;6.560;2022-12-07T12:22:53;5.63;;;4.50;;
20090;SDS011;10205;49.678;6.560;2022-12-07T12:25:27;5.07;;;3.70;;
20090;SDS011;10205;49.678;6.560;2022-12-07T12:28:02;4.73;;;3.63;;
20090;SDS011;10205;49.678;6.560;2022-12-07T12:30:33;5.87;;;3.60;;
20090;SDS011;10205;49.678;6.560;2022-12-07T12:33:05;5.80;;;4.13;;
20090;SDS011;10205;49.678;6.560;2022-12-07T12:35:41;4.93;;;3.93;;
20090;SDS011;10205;49.678;6.560;2022-12-07T12:38:30;5.20;;;3.47;;
20090;SDS011;10205;49.678;6.560;2022-12-07T12:40:59;4.13;;;3.27;;
20090;SDS011;10205;49.678;6.560;2022-12-07T12:43:46;6.43;;;4.23;;
20090;SDS011;10205;49.678;6.560;2022-12-07T12:46:37;4.03;;;3.17;;
20090;SDS011;10205;49.678;6.560;2022-12-07T12:55:22;4.77;;;3.10;;
20090;SDS011;10205;49.678;6.560;2022-12-07T12:58:37;3.67;;;3.13;;
20090;SDS011;10205;49.678;6.560;2022-12-07T13:10:25;6.03;;;3.17;;
20090;SDS011;10205;49.678;6.560;2022-12-07T13:22:39;6.70;;;3.57;;
20090;SDS011;10205;49.678;6.560;2022-12-07T13:25:17;3.70;;;3.00;;
20090;SDS011;10205;49.678;6.560;2022-12-07T13:27:57;5.37;;;3.37;;
20090;SDS011;10205;49.678;6.560;2022-12-07T13:30:38;4.03;;;3.17;;
20090;SDS011;10205;49.678;6.560;2022-12-07T13:33:13;3.67;;;2.90;;
20090;SDS011;10205;49.678;6.560;2022-12-07T13:35:46;6.43;;;3.50;;
20090;SDS011;10205;49.678;6.560;2022-12-07T13:38:16;4.00;;;3.00;;
20090;SDS011;10205;49.678;6.560;2022-12-07T13:41:10;3.90;;;3.00;;
20090;SDS011;10205;49.678;6.560;2022-12-07T13:43:42;6.87;;;3.53;;
20090;SDS011;10205;49.678;6.560;2022-12-07T13:46:11;4.00;;;3.10;;
20090;SDS011;10205;49.678;6.560;2022-12-07T13:48:43;3.87;;;2.93;;
20090;SDS011;10205;49.678;6.560;2022-12-07T13:51:18;4.13;;;3.20;;
20090;SDS011;10205;49.678;6.560;2022-12-07T13:53:50;4.87;;;3.43;;
20090;SDS011;10205;49.678;6.560;2022-12-07T13:56:20;4.33;;;3.40;;
20090;SDS011;10205;49.678;6.560;2022-12-07T13:58:54;4.17;;;3.50;;
20090;SDS011;10205;49.678;6.560;2022-12-07T14:01:21;3.73;;;2.93;;
20090;SDS011;10205;49.678;6.560;2022-12-07T14:03:50;4.40;;;3.00;;
20090;SDS011;10205;49.678;6.560;2022-12-07T14:06:24;4.50;;;3.40;;
20090;SDS011;10205;49.678;6.560;2022-12-07T14:09:05;4.60;;;3.23;;
20090;SDS011;10205;49.678;6.560;2022-12-07T14:11:34;4.13;;;3.00;;
20090;SDS011;10205;49.678;6.560;2022-12-07T14:14:10;4.43;;;3.23;;
20090;SDS011;10205;49.678;6.560;2022-12-07T14:16:54;5.57;;;3.20;;
20090;SDS011;10205;49.678;6.560;2022-12-07T14:19:41;5.20;;;3.63;;
20090;SDS011;10205;49.678;6.560;2022-12-07T14:22:21;4.40;;;3.30;;
20090;SDS011;10205;49.678;6.560;2022-12-07T14:24:58;3.93;;;3.07;;
20090;SDS011;10205;49.678;6.560;2022-12-07T14:27:30;4.40;;;2.97;;
20090;SDS011;10205;49.678;6.560;2022-12-07T14:30:01;4.93;;;3.17;;
20090;SDS011;10205;49.678;6.560;2022-12-07T14:32:31;4.20;;;3.17;;
20090;SDS011;10205;49.678;6.560;2022-12-07T14:35:02;3.90;;;2.80;;
20090;SDS011;10205;49.678;6.560;2022-12-07T14:37:39;3.33;;;2.60;;
20090;SDS011;10205;49.678;6.560;2022-12-07T14:40:11;3.97;;;3.23;;
20090;SDS011;10205;49.678;6.560;2022-12-07T14:42:40;5.20;;;3.10;;
20090;SDS011;10205;49.678;6.560;2022-12-07T14:45:13;3.77;;;3.10;;
20090;SDS011;10205;49.678;6.560;2022-12-07T14:47:44;4.63;;;3.13;;
20090;SDS011;10205;49.678;6.560;2022-12-07T14:50:12;4.50;;;3.70;;
20090;SDS011;10205;49.678;6.560;2022-12-07T14:52:45;4.53;;;3.07;;
20090;SDS011;10205;49.678;6.560;2022-12-07T14:55:20;3.63;;;3.20;;
20090;SDS011;10205;49.678;6.560;2022-12-07T14:57:51;5.37;;;3.20;;
20090;SDS011;10205;49.678;6.560;2022-12-07T15:00:20;5.93;;;3.27;;
20090;SDS011;10205;49.678;6.560;2022-12-07T15:02:49;3.77;;;3.20;;
20090;SDS011;10205;49.678;6.560;2022-12-07T15:05:17;4.60;;;3.33;;
20090;SDS011;10205;49.678;6.560;2022-12-07T15:07:46;5.37;;;3.63;;
20090;SDS011;10205;49.678;6.560;2022-12-07T15:10:16;6.57;;;3.73;;
20090;SDS011;10205;49.678;6.560;2022-12-07T15:12:46;3.87;;;3.33;;
20090;SDS011;10205;49.678;6.560;2022-12-07T15:15:13;4.57;;;3.40;;
20090;SDS011;10205;49.678;6.560;2022-12-07T15:17:42;5.33;;;3.30;;
20090;SDS011;10205;49.678;6.560;2022-12-07T15:20:10;4.23;;;3.20;;
20090;SDS011;10205;49.678;6.560;2022-12-07T15:22:41;6.13;;;3.27;;
20090;SDS011;10205;49.678;6.560;2022-12-07T15:25:12;4.57;;;3.20;;
20090;SDS011;10205;49.678;6.560;2022-12-07T15:27:40;4.60;;;2.90;;
20090;SDS011;10205;49.678;6.560;2022-12-07T15:30:07;5.17;;;2.87;;
20090;SDS011;10205;49.678;6.560;2022-12-07T15:32:35;4.67;;;3.17;;
20090;SDS011;10205;49.678;6.560;2022-12-07T15:35:02;4.47;;;3.23;;
20090;SDS011;10205;49.678;6.560;2022-12-07T15:37:30;3.47;;;3.17;;
20090;SDS011;10205;49.678;6.560;2022-12-07T15:39:57;5.40;;;3.43;;
20090;SDS011;10205;49.678;6.560;2022-12-07T15:42:25;3.53;;;3.00;;
20090;SDS011;10205;49.678;6.560;2022-12-07T15:44:52;3.47;;;3.17;;
20090;SDS011;10205;49.678;6.560;2022-12-07T15:47:30;4.30;;;3.20;;